createdAt,value
2018-12-26T00:04:48.674Z,16.33
2018-12-26T00:07:17.181Z,16.03
2018-12-26T00:09:45.681Z,16.17
2018-12-26T00:12:14.220Z,15.03
2018-12-26T00:14:42.722Z,15.20
2018-12-26T00:17:11.229Z,14.40
2018-12-26T00:20:19.784Z,14.90
2018-12-26T00:22:48.288Z,11.80
2018-12-26T00:25:16.833Z,10.97
2018-12-26T00:27:47.082Z,11.13
2018-12-26T00:30:15.580Z,11.77
2018-12-26T00:35:38.095Z,13.23
2018-12-26T00:38:19.053Z,14.07
2018-12-26T00:40:47.559Z,14.43
2018-12-26T00:43:16.063Z,13.47
2018-12-26T00:45:44.601Z,14.57
2018-12-26T00:48:13.109Z,14.47
2018-12-26T00:50:41.610Z,14.20
2018-12-26T00:55:44.562Z,14.30
2018-12-26T00:58:13.064Z,13.77
2018-12-26T01:03:15.817Z,14.20
2018-12-26T01:08:18.359Z,12.90
2018-12-26T01:10:46.872Z,14.13
2018-12-26T01:13:15.427Z,12.97
2018-12-26T01:15:43.927Z,13.13
2018-12-26T01:18:24.299Z,15.83
2018-12-26T01:23:16.973Z,13.27
2018-12-26T01:25:45.472Z,13.53
2018-12-26T01:30:47.758Z,14.10
2018-12-26T01:33:16.255Z,16.37
2018-12-26T01:38:19.127Z,13.57
2018-12-26T01:40:47.631Z,11.67
2018-12-26T01:43:16.171Z,35.40
2018-12-26T01:45:44.675Z,19.90
2018-12-26T01:48:13.179Z,13.10
2018-12-26T01:53:15.927Z,30.60
2018-12-26T01:55:44.432Z,19.20
2018-12-26T02:00:46.567Z,12.47
2018-12-26T02:03:34.498Z,11.60
2018-12-26T02:06:02.995Z,11.30
2018-12-26T02:08:31.498Z,9.27
2018-12-26T02:11:00.012Z,9.60
2018-12-26T02:13:28.511Z,9.77
2018-12-26T02:15:57.009Z,8.43
2018-12-26T02:21:18.797Z,28.27
2018-12-26T02:23:47.332Z,37.10
2018-12-26T02:26:15.903Z,11.13
2018-12-26T02:28:44.411Z,10.43
2018-12-26T02:31:12.970Z,10.57
2018-12-26T02:33:41.473Z,12.37
2018-12-26T02:36:09.968Z,13.00
2018-12-26T02:38:38.499Z,12.60
2018-12-26T02:41:06.999Z,12.13
2018-12-26T02:43:35.501Z,11.77
2018-12-26T02:59:14.147Z,10.30
2018-12-26T03:04:17.335Z,10.17
2018-12-26T03:06:45.863Z,11.20
2018-12-26T03:09:14.370Z,11.23
2018-12-26T03:11:42.883Z,11.50
2018-12-26T03:17:04.617Z,10.03
2018-12-26T03:22:07.465Z,9.77
2018-12-26T03:27:10.465Z,9.93
2018-12-26T03:29:38.975Z,11.37
2018-12-26T03:34:41.448Z,11.73
2018-12-26T03:37:09.992Z,10.70
2018-12-26T03:39:38.491Z,8.87
2018-12-26T03:42:26.423Z,9.77
2018-12-26T03:45:34.859Z,11.63
2018-12-26T03:48:43.320Z,11.93
2018-12-26T03:51:11.826Z,12.47
2018-12-26T03:53:59.530Z,11.87
2018-12-26T03:56:28.040Z,11.63
2018-12-26T04:02:10.288Z,11.30
2018-12-26T04:05:18.720Z,10.73
2018-12-26T04:08:06.572Z,9.70
2018-12-26T04:10:35.073Z,9.70
2018-12-26T04:13:43.636Z,9.40
2018-12-26T04:16:52.072Z,9.93
2018-12-26T04:19:20.622Z,10.43
2018-12-26T04:27:31.648Z,9.50
2018-12-26T04:30:00.249Z,10.23
2018-12-26T04:32:28.772Z,10.93
2018-12-26T04:35:16.486Z,10.33
2018-12-26T04:40:18.753Z,9.23
2018-12-26T04:42:47.256Z,8.70
2018-12-26T04:45:15.790Z,8.77
2018-12-26T04:47:44.288Z,8.27
2018-12-26T04:50:12.794Z,8.63
2018-12-26T04:55:15.059Z,6.87
2018-12-26T05:00:17.796Z,6.17
2018-12-26T05:02:46.334Z,5.60
2018-12-26T05:07:49.083Z,5.10
2018-12-26T05:12:51.240Z,5.53
2018-12-26T05:15:19.799Z,5.00
2018-12-26T05:17:48.824Z,4.07
2018-12-26T05:20:18.503Z,3.97
2018-12-26T05:23:06.451Z,4.20
2018-12-26T05:25:34.947Z,4.00
2018-12-26T05:28:03.441Z,3.77
2018-12-26T05:30:31.962Z,3.80
2018-12-26T05:33:00.534Z,5.90
2018-12-26T05:35:29.034Z,7.83
2018-12-26T05:40:31.206Z,4.17
2018-12-26T05:45:33.601Z,4.37
2018-12-26T05:50:36.544Z,5.47
2018-12-26T05:55:39.456Z,3.80
2018-12-26T05:58:07.946Z,3.77
2018-12-26T06:03:09.985Z,3.03
2018-12-26T06:05:38.488Z,3.20
2018-12-26T06:08:46.941Z,2.67
2018-12-26T06:11:15.430Z,3.07
2018-12-26T06:13:43.926Z,3.50
2018-12-26T06:18:46.464Z,3.27
2018-12-26T06:23:48.717Z,2.97
2018-12-26T06:26:17.202Z,2.90
2018-12-26T06:31:20.186Z,3.07
2018-12-26T06:36:23.103Z,3.07
2018-12-26T06:41:25.268Z,5.47
2018-12-26T06:43:53.766Z,2.80
2018-12-26T06:49:14.944Z,3.07
2018-12-26T06:54:17.861Z,2.87
2018-12-26T06:56:46.357Z,2.50
2018-12-26T07:01:49.095Z,2.60
2018-12-26T07:04:17.663Z,2.73
2018-12-26T07:06:46.144Z,2.70
2018-12-26T07:09:14.642Z,2.90
2018-12-26T07:14:16.889Z,2.63
2018-12-26T07:16:45.385Z,2.70
2018-12-26T07:27:09.610Z,2.37
2018-12-26T07:29:38.163Z,2.47
2018-12-26T07:32:06.656Z,2.47
2018-12-26T07:34:42.189Z,2.30
2018-12-26T07:39:38.966Z,2.60
2018-12-26T07:42:07.464Z,2.30
2018-12-26T07:47:09.599Z,2.23
2018-12-26T07:49:38.169Z,2.47
2018-12-26T07:54:40.652Z,2.63
2018-12-26T07:57:09.179Z,2.30
2018-12-26T07:59:37.978Z,2.00
2018-12-26T08:02:07.931Z,2.60
2018-12-26T08:04:36.409Z,2.40
2018-12-26T08:07:04.907Z,2.20
2018-12-26T08:09:33.409Z,2.47
2018-12-26T08:14:35.619Z,2.30
2018-12-26T08:17:04.119Z,2.20
2018-12-26T08:22:06.954Z,2.60
2018-12-26T08:27:09.829Z,2.83
2018-12-26T08:29:38.360Z,2.63
2018-12-26T08:32:06.859Z,3.13
2018-12-26T08:34:37.504Z,4.60
2018-12-26T08:37:05.606Z,4.53
2018-12-26T08:39:34.097Z,5.60
2018-12-26T08:42:02.591Z,5.63
2018-12-26T08:47:05.506Z,5.80
2018-12-26T08:49:34.004Z,8.03
2018-12-26T08:54:36.981Z,6.67
2018-12-26T08:57:05.531Z,6.50
2018-12-26T08:59:34.035Z,9.57
2018-12-26T09:02:02.536Z,8.23
2018-12-26T09:07:05.684Z,7.60
2018-12-26T09:09:34.201Z,8.40
2018-12-26T09:12:16.918Z,7.70
2018-12-26T09:14:32.923Z,6.30
2018-12-26T09:19:35.477Z,6.83
2018-12-26T09:22:03.970Z,5.87
2018-12-26T09:27:46.194Z,5.80
2018-12-26T09:32:48.387Z,6.43
2018-12-26T09:35:16.891Z,7.47
2018-12-26T09:40:19.030Z,5.73
2018-12-26T09:42:47.520Z,6.40
2018-12-26T09:47:50.350Z,8.20
2018-12-26T09:52:52.449Z,7.03
2018-12-26T09:55:20.979Z,7.00
2018-12-26T09:57:49.479Z,6.57
2018-12-26T10:00:17.980Z,5.40
2018-12-26T10:02:46.524Z,8.20
2018-12-26T10:05:15.077Z,8.30
2018-12-26T10:07:43.531Z,6.27
2018-12-26T10:12:46.034Z,4.57
2018-12-26T10:15:14.830Z,4.60
2018-12-26T10:17:43.328Z,4.97
2018-12-26T10:20:11.828Z,5.63
2018-12-26T10:25:14.640Z,3.47
2018-12-26T10:30:17.074Z,3.40
2018-12-26T10:32:45.569Z,2.97
2018-12-26T10:35:33.474Z,3.27
2018-12-26T10:38:01.974Z,4.00
2018-12-26T10:43:17.990Z,4.10
2018-12-26T10:45:46.483Z,3.50
2018-12-26T10:48:14.981Z,2.73
2018-12-26T10:53:17.518Z,3.00
2018-12-26T10:55:46.126Z,2.90
2018-12-26T10:58:14.626Z,3.17
2018-12-26T11:00:43.122Z,3.80
2018-12-26T11:03:11.941Z,3.73
2018-12-26T11:05:40.508Z,3.83
2018-12-26T11:08:09.072Z,3.00
2018-12-26T11:10:37.622Z,2.70
2018-12-26T11:13:06.120Z,1.93
2018-12-26T11:15:34.614Z,1.83
2018-12-26T11:18:03.384Z,1.77
2018-12-26T11:20:32.016Z,1.83
2018-12-26T11:23:00.512Z,1.93
2018-12-26T11:25:29.106Z,1.77
2018-12-26T11:27:57.603Z,1.83
2018-12-26T11:30:26.094Z,2.10
2018-12-26T11:32:54.700Z,2.00
2018-12-26T11:35:23.269Z,2.13
2018-12-26T11:37:51.775Z,2.20
2018-12-26T11:40:20.491Z,2.17
2018-12-26T11:42:49.165Z,2.30
2018-12-26T11:45:17.663Z,2.30
2018-12-26T11:50:20.046Z,2.20
2018-12-26T11:52:48.653Z,2.53
2018-12-26T11:55:17.220Z,2.47
2018-12-26T11:57:45.709Z,2.27
2018-12-26T12:00:14.226Z,2.13
2018-12-26T12:02:44.471Z,2.60
2018-12-26T12:05:13.046Z,2.23
2018-12-26T12:10:16.078Z,2.70
2018-12-26T12:15:38.961Z,3.23
2018-12-26T12:18:07.517Z,4.13
2018-12-26T12:20:36.007Z,2.73
2018-12-26T12:25:38.899Z,2.43
2018-12-26T12:30:42.112Z,3.43
2018-12-26T12:36:03.629Z,2.47
2018-12-26T12:39:12.378Z,2.57
2018-12-26T12:41:40.871Z,2.40
2018-12-26T12:44:09.369Z,2.83
2018-12-26T12:46:57.221Z,2.97
2018-12-26T12:49:25.719Z,3.43
2018-12-26T12:51:54.213Z,4.20
2018-12-26T12:54:42.183Z,3.57
2018-12-26T12:57:10.681Z,3.17
2018-12-26T12:59:44.715Z,2.70
2018-12-26T13:04:43.415Z,2.60
2018-12-26T13:09:45.890Z,2.90
2018-12-26T13:12:33.708Z,2.27
2018-12-26T13:15:21.537Z,2.50
2018-12-26T13:22:59.067Z,1.90
2018-12-26T13:25:27.562Z,1.90
2018-12-26T13:27:56.094Z,2.10
2018-12-26T13:30:24.628Z,2.27
2018-12-26T13:32:53.126Z,2.17
2018-12-26T13:35:21.628Z,2.20
2018-12-26T13:40:24.474Z,2.00
2018-12-26T13:42:52.996Z,2.30
2018-12-26T13:45:21.490Z,3.30
2018-12-26T13:47:49.984Z,2.07
2018-12-26T13:52:59.912Z,2.60
2018-12-26T13:55:47.933Z,2.73
2018-12-26T13:58:28.527Z,3.23
2018-12-26T14:03:31.029Z,2.90
2018-12-26T14:05:59.558Z,4.30
2018-12-26T14:08:28.053Z,3.60
2018-12-26T14:10:56.550Z,3.53
2018-12-26T14:13:25.093Z,5.70
2018-12-26T14:15:53.588Z,4.47
2018-12-26T14:18:41.472Z,4.67
2018-12-26T14:21:49.914Z,4.40
2018-12-26T14:26:52.385Z,2.97
2018-12-26T14:29:20.931Z,2.50
2018-12-26T14:31:49.430Z,2.40
2018-12-26T14:34:17.925Z,2.67
2018-12-26T14:39:20.431Z,3.67
2018-12-26T14:41:48.958Z,3.20
2018-12-26T14:44:17.454Z,2.90
2018-12-26T14:46:45.948Z,2.97
2018-12-26T14:51:48.828Z,2.63
2018-12-26T14:54:36.824Z,2.60
2018-12-26T14:57:05.314Z,2.70
2018-12-26T14:59:46.477Z,2.90
2018-12-26T15:02:17.990Z,3.10
2018-12-26T15:04:46.480Z,3.53
2018-12-26T15:09:49.468Z,3.63
2018-12-26T15:12:17.958Z,3.63
2018-12-26T15:14:46.506Z,3.47
2018-12-26T15:17:15.006Z,2.73
2018-12-26T15:19:43.507Z,3.30
2018-12-26T15:24:46.053Z,5.33
2018-12-26T15:27:14.548Z,5.20
2018-12-26T15:32:16.919Z,5.70
2018-12-26T15:34:45.394Z,5.70
2018-12-26T15:39:48.289Z,7.00
2018-12-26T15:44:51.302Z,6.83
2018-12-26T15:47:19.829Z,8.13
2018-12-26T15:49:48.344Z,7.77
2018-12-26T15:52:36.159Z,5.60
2018-12-26T15:55:04.805Z,5.73
2018-12-26T15:57:33.306Z,5.17
2018-12-26T16:02:36.311Z,3.60
2018-12-26T16:05:44.845Z,3.83
2018-12-26T16:08:13.343Z,3.17
2018-12-26T16:10:41.847Z,3.00
2018-12-26T16:15:44.824Z,47.47
2018-12-26T16:18:13.526Z,24.23
2018-12-26T16:20:41.960Z,5.47
2018-12-26T16:23:10.466Z,3.53
2018-12-26T16:25:39.008Z,2.90
2018-12-26T16:28:07.507Z,3.40
2018-12-26T16:30:36.011Z,3.00
2018-12-26T16:33:04.539Z,5.50
2018-12-26T16:35:33.040Z,4.60
2018-12-26T16:38:01.999Z,6.40
2018-12-26T16:43:06.188Z,10.30
2018-12-26T16:45:34.730Z,11.83
2018-12-26T16:48:14.861Z,14.10
2018-12-26T16:50:33.458Z,15.07
2018-12-26T16:53:02.088Z,16.13
2018-12-26T16:55:30.587Z,13.97
2018-12-26T16:58:18.527Z,20.90
2018-12-26T17:00:54.804Z,10.40
2018-12-26T17:03:17.328Z,10.33
2018-12-26T17:08:20.348Z,9.77
2018-12-26T17:10:48.873Z,9.67
2018-12-26T17:13:17.378Z,9.73
2018-12-26T17:15:45.880Z,10.40
2018-12-26T17:20:48.064Z,10.97
2018-12-26T17:23:16.565Z,10.57
2018-12-26T17:28:19.335Z,11.53
2018-12-26T17:30:47.896Z,13.23
2018-12-26T17:33:16.397Z,11.70
2018-12-26T17:35:44.897Z,12.57
2018-12-26T17:38:13.499Z,13.03
2018-12-26T17:40:42.002Z,12.73
2018-12-26T17:43:10.499Z,11.80
2018-12-26T17:45:39.073Z,11.83
2018-12-26T17:48:07.578Z,13.83
2018-12-26T17:50:55.449Z,14.20
2018-12-26T17:54:03.911Z,15.10
2018-12-26T17:57:12.406Z,16.40
2018-12-26T18:00:20.911Z,17.77
2018-12-26T18:02:49.444Z,16.53
2018-12-26T18:05:30.626Z,16.00
2018-12-26T18:07:59.159Z,14.40
2018-12-26T18:10:27.673Z,14.63
2018-12-26T18:12:56.172Z,13.57
2018-12-26T18:15:24.798Z,13.27
2018-12-26T18:17:53.310Z,13.63
2018-12-26T18:20:21.812Z,13.90
2018-12-26T18:25:24.952Z,14.23
2018-12-26T18:27:53.600Z,15.60
2018-12-26T18:30:22.168Z,31.07
2018-12-26T18:32:50.683Z,20.37
2018-12-26T18:37:53.326Z,17.53
2018-12-26T18:42:55.676Z,17.10
2018-12-26T18:45:24.255Z,16.10
2018-12-26T18:47:52.802Z,15.57
2018-12-26T18:50:21.414Z,16.33
2018-12-26T18:52:49.911Z,16.30
2018-12-26T18:55:18.510Z,16.37
2018-12-26T18:57:47.015Z,17.23
2018-12-26T19:00:15.511Z,16.83
2018-12-26T19:05:18.053Z,15.87
2018-12-26T19:07:46.601Z,16.17
2018-12-26T19:10:17.413Z,18.57
2018-12-26T19:12:45.921Z,21.27
2018-12-26T19:17:48.626Z,17.00
2018-12-26T19:22:51.187Z,15.23
2018-12-26T19:25:19.748Z,15.67
2018-12-26T19:30:22.022Z,15.50
2018-12-26T19:32:50.562Z,39.43
2018-12-26T19:35:19.112Z,40.47
2018-12-26T19:37:47.615Z,17.90
2018-12-26T19:40:16.126Z,85.20
2018-12-26T19:45:19.096Z,21.63
2018-12-26T19:47:47.660Z,31.60
2018-12-26T19:50:16.239Z,31.70
2018-12-26T19:52:44.740Z,24.00
2018-12-26T19:58:07.579Z,16.67
2018-12-26T20:00:36.110Z,15.00
2018-12-26T20:03:04.684Z,18.13
2018-12-26T20:05:33.225Z,12.30
2018-12-26T20:08:01.726Z,11.23
2018-12-26T20:10:30.234Z,11.03
2018-12-26T20:15:33.236Z,10.63
2018-12-26T20:20:36.492Z,11.40
2018-12-26T20:25:38.740Z,11.30
2018-12-26T20:28:07.254Z,10.33
2018-12-26T20:33:09.358Z,15.23
2018-12-26T20:35:37.874Z,14.87
2018-12-26T20:38:06.566Z,13.20
2018-12-26T20:40:35.075Z,11.63
2018-12-26T20:43:03.664Z,11.90
2018-12-26T20:45:32.286Z,10.77
2018-12-26T20:48:00.789Z,10.87
2018-12-26T20:50:29.316Z,10.93
2018-12-26T20:55:32.374Z,11.90
2018-12-26T21:00:34.629Z,11.50
2018-12-26T21:03:03.124Z,9.50
2018-12-26T21:08:05.670Z,9.37
2018-12-26T21:10:34.170Z,11.10
2018-12-26T21:13:02.772Z,12.10
2018-12-26T21:15:31.276Z,11.47
2018-12-26T21:17:59.803Z,11.30
2018-12-26T21:23:02.326Z,12.00
2018-12-26T21:25:30.976Z,12.47
2018-12-26T21:27:59.490Z,11.60
2018-12-26T21:30:27.998Z,11.70
2018-12-26T21:32:56.610Z,13.73
2018-12-26T21:35:25.110Z,15.33
2018-12-26T21:37:53.614Z,17.10
2018-12-26T21:40:22.150Z,18.90
2018-12-26T21:42:50.648Z,19.27
2018-12-26T21:45:19.158Z,19.37
2018-12-26T21:47:47.692Z,18.23
2018-12-26T21:50:16.188Z,18.47
2018-12-26T21:52:44.698Z,17.70
2018-12-26T21:57:46.723Z,18.93
2018-12-26T22:00:15.234Z,20.60
2018-12-26T22:02:43.849Z,21.63
2018-12-26T22:05:12.362Z,22.13
2018-12-26T22:07:40.872Z,34.37
2018-12-26T22:12:43.629Z,27.87
2018-12-26T22:15:12.198Z,24.80
2018-12-26T22:17:40.699Z,24.27
2018-12-26T22:20:09.208Z,22.47
2018-12-26T22:22:37.818Z,20.70
2018-12-26T22:25:06.389Z,19.20
2018-12-26T22:27:34.924Z,17.87
2018-12-26T22:32:57.744Z,19.27
2018-12-26T22:35:26.415Z,18.90
2018-12-26T22:37:54.916Z,18.50
2018-12-26T22:40:23.678Z,17.93
2018-12-26T22:42:52.177Z,18.23
2018-12-26T22:45:20.679Z,19.77
2018-12-26T22:47:49.310Z,16.57
2018-12-26T22:50:17.822Z,17.67
2018-12-26T22:52:46.331Z,16.03
2018-12-26T22:55:15.117Z,15.30
2018-12-26T22:57:43.624Z,13.37
2018-12-26T23:05:35.907Z,13.83
2018-12-26T23:10:38.762Z,11.93
2018-12-26T23:13:07.391Z,11.73
2018-12-26T23:15:35.911Z,12.87
2018-12-26T23:18:04.419Z,12.53
2018-12-26T23:23:07.639Z,13.27
2018-12-26T23:25:36.270Z,13.80
2018-12-26T23:28:04.775Z,12.00
2018-12-26T23:30:33.281Z,13.80
2018-12-26T23:33:01.813Z,12.73
2018-12-26T23:35:30.320Z,13.47
2018-12-26T23:37:58.820Z,14.77
2018-12-26T23:43:01.455Z,14.53
2018-12-26T23:48:04.065Z,13.97
2018-12-26T23:53:06.583Z,13.07
2018-12-26T23:55:35.125Z,13.67
2018-12-26T23:58:03.634Z,13.40
